sensor_id;sensor_type;location;lat;lon;timestamp;P1;durP1;ratioP1;P2;durP2;ratioP2
20421;SDS011;10370;53.102;18.034;2022-10-22T00:01:46;76.78;;;37.85;;
20421;SDS011;10370;53.102;18.034;2022-10-22T00:07:10;73.38;;;37.65;;
20421;SDS011;10370;53.102;18.034;2022-10-22T00:12:30;75.35;;;38.60;;
20421;SDS011;10370;53.102;18.034;2022-10-22T00:17:52;79.95;;;40.00;;
20421;SDS011;10370;53.102;18.034;2022-10-22T00:23:14;74.57;;;40.83;;
20421;SDS011;10370;53.102;18.034;2022-10-22T00:28:35;78.68;;;40.85;;
20421;SDS011;10370;53.102;18.034;2022-10-22T00:33:56;91.85;;;40.92;;
20421;SDS011;10370;53.102;18.034;2022-10-22T00:39:18;88.57;;;42.42;;
20421;SDS011;10370;53.102;18.034;2022-10-22T00:50:34;76.40;;;39.15;;
20421;SDS011;10370;53.102;18.034;2022-10-22T00:56:02;89.65;;;44.58;;
20421;SDS011;10370;53.102;18.034;2022-10-22T01:01:24;84.85;;;41.55;;
20421;SDS011;10370;53.102;18.034;2022-10-22T01:06:47;91.95;;;42.90;;
20421;SDS011;10370;53.102;18.034;2022-10-22T01:18:08;93.03;;;41.60;;
20421;SDS011;10370;53.102;18.034;2022-10-22T01:29:14;78.45;;;40.67;;
20421;SDS011;10370;53.102;18.034;2022-10-22T01:34:46;74.93;;;39.80;;
20421;SDS011;10370;53.102;18.034;2022-10-22T01:40:12;79.25;;;40.53;;
20421;SDS011;10370;53.102;18.034;2022-10-22T01:45:42;80.55;;;39.08;;
20421;SDS011;10370;53.102;18.034;2022-10-22T01:57:15;84.78;;;43.05;;
20421;SDS011;10370;53.102;18.034;2022-10-22T02:03:18;86.75;;;44.15;;
20421;SDS011;10370;53.102;18.034;2022-10-22T02:08:45;85.18;;;43.45;;
20421;SDS011;10370;53.102;18.034;2022-10-22T02:14:11;82.13;;;42.83;;
20421;SDS011;10370;53.102;18.034;2022-10-22T02:19:51;76.78;;;40.50;;
20421;SDS011;10370;53.102;18.034;2022-10-22T02:25:16;63.08;;;34.08;;
20421;SDS011;10370;53.102;18.034;2022-10-22T02:30:52;74.28;;;37.17;;
20421;SDS011;10370;53.102;18.034;2022-10-22T02:36:18;63.45;;;33.72;;
20421;SDS011;10370;53.102;18.034;2022-10-22T02:41:52;68.93;;;34.80;;
20421;SDS011;10370;53.102;18.034;2022-10-22T02:47:18;62.10;;;32.13;;
20421;SDS011;10370;53.102;18.034;2022-10-22T02:52:40;58.90;;;31.83;;
20421;SDS011;10370;53.102;18.034;2022-10-22T02:58:01;57.50;;;28.58;;
20421;SDS011;10370;53.102;18.034;2022-10-22T03:03:28;42.30;;;23.23;;
20421;SDS011;10370;53.102;18.034;2022-10-22T03:08:49;32.45;;;18.92;;
20421;SDS011;10370;53.102;18.034;2022-10-22T03:14:14;32.92;;;20.45;;
20421;SDS011;10370;53.102;18.034;2022-10-22T03:19:38;27.08;;;15.73;;
20421;SDS011;10370;53.102;18.034;2022-10-22T03:25:01;25.63;;;15.20;;
20421;SDS011;10370;53.102;18.034;2022-10-22T03:30:26;24.63;;;14.88;;
20421;SDS011;10370;53.102;18.034;2022-10-22T03:35:47;22.95;;;14.30;;
20421;SDS011;10370;53.102;18.034;2022-10-22T03:41:08;23.27;;;14.35;;
20421;SDS011;10370;53.102;18.034;2022-10-22T03:46:30;26.50;;;15.90;;
20421;SDS011;10370;53.102;18.034;2022-10-22T03:57:12;35.08;;;18.15;;
20421;SDS011;10370;53.102;18.034;2022-10-22T04:02:39;42.78;;;20.85;;
20421;SDS011;10370;53.102;18.034;2022-10-22T04:08:00;48.63;;;22.60;;
20421;SDS011;10370;53.102;18.034;2022-10-22T04:13:22;64.68;;;23.52;;
20421;SDS011;10370;53.102;18.034;2022-10-22T04:18:44;69.78;;;25.27;;
20421;SDS011;10370;53.102;18.034;2022-10-22T04:24:07;58.75;;;25.10;;
20421;SDS011;10370;53.102;18.034;2022-10-22T04:29:29;57.10;;;24.92;;
20421;SDS011;10370;53.102;18.034;2022-10-22T04:34:50;66.93;;;25.40;;
20421;SDS011;10370;53.102;18.034;2022-10-22T04:40:11;64.60;;;25.40;;
20421;SDS011;10370;53.102;18.034;2022-10-22T04:45:32;65.95;;;25.25;;
20421;SDS011;10370;53.102;18.034;2022-10-22T04:50:55;60.53;;;24.92;;
20421;SDS011;10370;53.102;18.034;2022-10-22T04:56:18;66.57;;;25.33;;
20421;SDS011;10370;53.102;18.034;2022-10-22T05:01:44;81.57;;;25.30;;
20421;SDS011;10370;53.102;18.034;2022-10-22T05:07:06;90.63;;;27.33;;
20421;SDS011;10370;53.102;18.034;2022-10-22T05:12:26;89.43;;;27.42;;
20421;SDS011;10370;53.102;18.034;2022-10-22T05:17:49;78.10;;;28.38;;
20421;SDS011;10370;53.102;18.034;2022-10-22T05:23:09;86.13;;;27.58;;
20421;SDS011;10370;53.102;18.034;2022-10-22T05:28:31;111.95;;;30.50;;
20421;SDS011;10370;53.102;18.034;2022-10-22T05:33:53;113.22;;;30.33;;
20421;SDS011;10370;53.102;18.034;2022-10-22T05:39:14;134.77;;;32.53;;
20421;SDS011;10370;53.102;18.034;2022-10-22T05:44:35;104.68;;;33.53;;
20421;SDS011;10370;53.102;18.034;2022-10-22T05:49:57;93.95;;;31.20;;
20421;SDS011;10370;53.102;18.034;2022-10-22T05:55:19;103.55;;;31.40;;
20421;SDS011;10370;53.102;18.034;2022-10-22T06:00:40;129.25;;;31.77;;
20421;SDS011;10370;53.102;18.034;2022-10-22T06:06:04;126.85;;;36.38;;
20421;SDS011;10370;53.102;18.034;2022-10-22T06:11:33;129.63;;;38.90;;
20421;SDS011;10370;53.102;18.034;2022-10-22T06:16:54;126.22;;;35.28;;
20421;SDS011;10370;53.102;18.034;2022-10-22T06:22:18;100.03;;;32.75;;
20421;SDS011;10370;53.102;18.034;2022-10-22T06:27:38;113.22;;;32.58;;
20421;SDS011;10370;53.102;18.034;2022-10-22T06:32:59;91.20;;;31.73;;
20421;SDS011;10370;53.102;18.034;2022-10-22T06:38:20;91.95;;;32.55;;
20421;SDS011;10370;53.102;18.034;2022-10-22T06:43:42;94.45;;;31.45;;
20421;SDS011;10370;53.102;18.034;2022-10-22T06:49:06;84.60;;;29.25;;
20421;SDS011;10370;53.102;18.034;2022-10-22T06:54:30;86.38;;;30.00;;
20421;SDS011;10370;53.102;18.034;2022-10-22T06:59:51;85.90;;;29.80;;
20421;SDS011;10370;53.102;18.034;2022-10-22T07:05:11;81.30;;;29.15;;
20421;SDS011;10370;53.102;18.034;2022-10-22T07:10:32;79.32;;;28.63;;
20421;SDS011;10370;53.102;18.034;2022-10-22T07:21:15;71.72;;;27.27;;
20421;SDS011;10370;53.102;18.034;2022-10-22T07:26:40;71.45;;;27.25;;
20421;SDS011;10370;53.102;18.034;2022-10-22T07:32:01;68.60;;;27.48;;
20421;SDS011;10370;53.102;18.034;2022-10-22T07:37:31;72.53;;;27.70;;
20421;SDS011;10370;53.102;18.034;2022-10-22T07:42:52;69.63;;;26.98;;
20421;SDS011;10370;53.102;18.034;2022-10-22T07:48:14;71.53;;;26.75;;
20421;SDS011;10370;53.102;18.034;2022-10-22T07:53:36;66.07;;;27.30;;
20421;SDS011;10370;53.102;18.034;2022-10-22T07:58:57;68.78;;;27.10;;
20421;SDS011;10370;53.102;18.034;2022-10-22T08:04:18;60.53;;;24.73;;
20421;SDS011;10370;53.102;18.034;2022-10-22T08:09:43;61.25;;;24.48;;
20421;SDS011;10370;53.102;18.034;2022-10-22T08:15:04;56.42;;;24.70;;
20421;SDS011;10370;53.102;18.034;2022-10-22T08:20:27;62.97;;;25.38;;
20421;SDS011;10370;53.102;18.034;2022-10-22T08:25:51;58.03;;;24.50;;
20421;SDS011;10370;53.102;18.034;2022-10-22T08:31:25;59.60;;;23.92;;
20421;SDS011;10370;53.102;18.034;2022-10-22T08:36:46;59.10;;;24.45;;
20421;SDS011;10370;53.102;18.034;2022-10-22T08:48:20;54.00;;;22.95;;
20421;SDS011;10370;53.102;18.034;2022-10-22T08:54:03;49.50;;;21.57;;
20421;SDS011;10370;53.102;18.034;2022-10-22T08:59:56;43.47;;;20.60;;
20421;SDS011;10370;53.102;18.034;2022-10-22T09:10:48;42.90;;;19.40;;
20421;SDS011;10370;53.102;18.034;2022-10-22T09:21:47;43.25;;;20.45;;
20421;SDS011;10370;53.102;18.034;2022-10-22T09:27:51;53.92;;;23.40;;
20421;SDS011;10370;53.102;18.034;2022-10-22T09:33:24;44.28;;;20.80;;
20421;SDS011;10370;53.102;18.034;2022-10-22T09:38:47;42.33;;;18.85;;
20421;SDS011;10370;53.102;18.034;2022-10-22T09:44:11;43.88;;;19.70;;
20421;SDS011;10370;53.102;18.034;2022-10-22T09:49:33;42.80;;;19.73;;
20421;SDS011;10370;53.102;18.034;2022-10-22T09:55:01;50.55;;;22.10;;
20421;SDS011;10370;53.102;18.034;2022-10-22T10:00:22;57.88;;;23.40;;
20421;SDS011;10370;53.102;18.034;2022-10-22T10:05:48;67.22;;;25.15;;
20421;SDS011;10370;53.102;18.034;2022-10-22T10:16:54;68.13;;;24.63;;
20421;SDS011;10370;53.102;18.034;2022-10-22T10:28:31;72.45;;;25.50;;
20421;SDS011;10370;53.102;18.034;2022-10-22T11:15:10;75.65;;;27.70;;
20421;SDS011;10370;53.102;18.034;2022-10-22T11:27:06;65.72;;;25.65;;
20421;SDS011;10370;53.102;18.034;2022-10-22T11:32:40;62.75;;;25.77;;
20421;SDS011;10370;53.102;18.034;2022-10-22T11:38:05;57.75;;;23.02;;
20421;SDS011;10370;53.102;18.034;2022-10-22T11:43:51;59.00;;;24.73;;
20421;SDS011;10370;53.102;18.034;2022-10-22T11:49:41;52.83;;;22.65;;
20421;SDS011;10370;53.102;18.034;2022-10-22T11:55:27;56.30;;;21.98;;
20421;SDS011;10370;53.102;18.034;2022-10-22T12:00:53;45.97;;;21.08;;
20421;SDS011;10370;53.102;18.034;2022-10-22T12:06:19;46.55;;;21.58;;
20421;SDS011;10370;53.102;18.034;2022-10-22T12:11:46;45.17;;;20.63;;
20421;SDS011;10370;53.102;18.034;2022-10-22T12:17:15;40.63;;;19.20;;
20421;SDS011;10370;53.102;18.034;2022-10-22T12:22:37;43.13;;;19.42;;
20421;SDS011;10370;53.102;18.034;2022-10-22T12:28:00;43.67;;;20.70;;
20421;SDS011;10370;53.102;18.034;2022-10-22T12:33:22;40.95;;;19.05;;
20421;SDS011;10370;53.102;18.034;2022-10-22T12:38:45;36.58;;;17.85;;
20421;SDS011;10370;53.102;18.034;2022-10-22T12:44:10;31.15;;;16.48;;
20421;SDS011;10370;53.102;18.034;2022-10-22T12:49:34;29.50;;;14.90;;
20421;SDS011;10370;53.102;18.034;2022-10-22T12:55:03;34.58;;;17.40;;
20421;SDS011;10370;53.102;18.034;2022-10-22T13:00:32;23.85;;;13.32;;
20421;SDS011;10370;53.102;18.034;2022-10-22T13:06:23;30.02;;;12.98;;
20421;SDS011;10370;53.102;18.034;2022-10-22T13:12:43;30.58;;;15.50;;
20421;SDS011;10370;53.102;18.034;2022-10-22T13:18:42;20.42;;;12.27;;
20421;SDS011;10370;53.102;18.034;2022-10-22T13:24:24;20.48;;;10.73;;
20421;SDS011;10370;53.102;18.034;2022-10-22T13:30:17;26.13;;;15.23;;
20421;SDS011;10370;53.102;18.034;2022-10-22T13:36:14;35.45;;;18.75;;
20421;SDS011;10370;53.102;18.034;2022-10-22T13:41:37;23.05;;;14.00;;
20421;SDS011;10370;53.102;18.034;2022-10-22T13:47:02;24.70;;;13.13;;
20421;SDS011;10370;53.102;18.034;2022-10-22T13:52:27;25.60;;;14.15;;
20421;SDS011;10370;53.102;18.034;2022-10-22T13:58:08;23.35;;;13.23;;
20421;SDS011;10370;53.102;18.034;2022-10-22T14:03:31;19.30;;;12.75;;
20421;SDS011;10370;53.102;18.034;2022-10-22T14:08:55;19.42;;;11.18;;
20421;SDS011;10370;53.102;18.034;2022-10-22T14:14:57;14.48;;;9.60;;
20421;SDS011;10370;53.102;18.034;2022-10-22T14:20:55;14.05;;;9.05;;
20421;SDS011;10370;53.102;18.034;2022-10-22T14:26:45;16.70;;;9.85;;
20421;SDS011;10370;53.102;18.034;2022-10-22T14:32:13;17.02;;;10.45;;
20421;SDS011;10370;53.102;18.034;2022-10-22T14:37:38;19.05;;;9.85;;
20421;SDS011;10370;53.102;18.034;2022-10-22T14:42:58;19.50;;;9.85;;
20421;SDS011;10370;53.102;18.034;2022-10-22T14:48:19;20.58;;;11.23;;
20421;SDS011;10370;53.102;18.034;2022-10-22T14:53:40;19.55;;;11.70;;
20421;SDS011;10370;53.102;18.034;2022-10-22T14:59:01;38.33;;;22.73;;
20421;SDS011;10370;53.102;18.034;2022-10-22T15:04:22;35.65;;;18.02;;
20421;SDS011;10370;53.102;18.034;2022-10-22T15:09:45;30.38;;;18.05;;
20421;SDS011;10370;53.102;18.034;2022-10-22T15:15:07;26.40;;;14.63;;
20421;SDS011;10370;53.102;18.034;2022-10-22T15:20:28;23.05;;;12.52;;
20421;SDS011;10370;53.102;18.034;2022-10-22T15:25:49;19.83;;;11.93;;
20421;SDS011;10370;53.102;18.034;2022-10-22T15:31:11;24.75;;;14.10;;
20421;SDS011;10370;53.102;18.034;2022-10-22T15:36:33;24.13;;;13.88;;
20421;SDS011;10370;53.102;18.034;2022-10-22T15:41:54;26.25;;;15.15;;
20421;SDS011;10370;53.102;18.034;2022-10-22T15:47:15;27.52;;;15.20;;
20421;SDS011;10370;53.102;18.034;2022-10-22T15:52:36;29.67;;;16.65;;
20421;SDS011;10370;53.102;18.034;2022-10-22T15:57:56;33.72;;;17.52;;
20421;SDS011;10370;53.102;18.034;2022-10-22T16:03:19;31.80;;;17.33;;
20421;SDS011;10370;53.102;18.034;2022-10-22T16:08:40;33.35;;;17.65;;
20421;SDS011;10370;53.102;18.034;2022-10-22T16:14:01;35.90;;;19.42;;
20421;SDS011;10370;53.102;18.034;2022-10-22T16:19:23;42.25;;;21.15;;
20421;SDS011;10370;53.102;18.034;2022-10-22T16:24:44;39.15;;;19.80;;
20421;SDS011;10370;53.102;18.034;2022-10-22T16:30:05;44.97;;;23.95;;
20421;SDS011;10370;53.102;18.034;2022-10-22T16:35:28;45.03;;;23.95;;
20421;SDS011;10370;53.102;18.034;2022-10-22T16:40:48;55.40;;;27.40;;
20421;SDS011;10370;53.102;18.034;2022-10-22T16:46:12;43.28;;;22.60;;
20421;SDS011;10370;53.102;18.034;2022-10-22T16:51:35;42.72;;;24.05;;
20421;SDS011;10370;53.102;18.034;2022-10-22T16:56:55;43.08;;;21.35;;
20421;SDS011;10370;53.102;18.034;2022-10-22T17:02:16;39.03;;;21.55;;
20421;SDS011;10370;53.102;18.034;2022-10-22T17:07:36;41.22;;;21.10;;
20421;SDS011;10370;53.102;18.034;2022-10-22T17:12:57;41.03;;;20.35;;
20421;SDS011;10370;53.102;18.034;2022-10-22T17:18:18;41.90;;;20.73;;
20421;SDS011;10370;53.102;18.034;2022-10-22T17:23:41;42.30;;;20.77;;
20421;SDS011;10370;53.102;18.034;2022-10-22T17:29:02;44.45;;;21.88;;
20421;SDS011;10370;53.102;18.034;2022-10-22T17:34:24;42.60;;;22.83;;
20421;SDS011;10370;53.102;18.034;2022-10-22T17:39:46;44.17;;;22.30;;
20421;SDS011;10370;53.102;18.034;2022-10-22T17:45:07;49.00;;;22.35;;
20421;SDS011;10370;53.102;18.034;2022-10-22T17:50:28;47.58;;;23.45;;
20421;SDS011;10370;53.102;18.034;2022-10-22T17:55:56;47.78;;;22.77;;
20421;SDS011;10370;53.102;18.034;2022-10-22T18:06:47;42.53;;;20.85;;
20421;SDS011;10370;53.102;18.034;2022-10-22T18:12:09;43.20;;;20.88;;
20421;SDS011;10370;53.102;18.034;2022-10-22T18:22:53;45.00;;;19.88;;
20421;SDS011;10370;53.102;18.034;2022-10-22T18:28:14;40.45;;;19.27;;
20421;SDS011;10370;53.102;18.034;2022-10-22T18:33:36;38.80;;;18.83;;
20421;SDS011;10370;53.102;18.034;2022-10-22T18:38:59;42.92;;;21.25;;
20421;SDS011;10370;53.102;18.034;2022-10-22T18:44:23;50.22;;;23.60;;
20421;SDS011;10370;53.102;18.034;2022-10-22T18:49:44;92.90;;;38.78;;
20421;SDS011;10370;53.102;18.034;2022-10-22T18:55:13;66.90;;;28.10;;
20421;SDS011;10370;53.102;18.034;2022-10-22T19:00:41;62.08;;;26.60;;
20421;SDS011;10370;53.102;18.034;2022-10-22T19:06:02;72.57;;;28.45;;
20421;SDS011;10370;53.102;18.034;2022-10-22T19:11:27;87.60;;;31.33;;
20421;SDS011;10370;53.102;18.034;2022-10-22T19:16:48;74.50;;;28.10;;
20421;SDS011;10370;53.102;18.034;2022-10-22T19:22:10;74.53;;;27.73;;
20421;SDS011;10370;53.102;18.034;2022-10-22T19:27:32;78.43;;;30.23;;
20421;SDS011;10370;53.102;18.034;2022-10-22T19:32:56;72.10;;;25.95;;
20421;SDS011;10370;53.102;18.034;2022-10-22T19:38:20;81.07;;;31.17;;
20421;SDS011;10370;53.102;18.034;2022-10-22T19:43:43;75.82;;;27.33;;
20421;SDS011;10370;53.102;18.034;2022-10-22T19:49:09;62.42;;;25.38;;
20421;SDS011;10370;53.102;18.034;2022-10-22T19:54:36;73.43;;;26.52;;
20421;SDS011;10370;53.102;18.034;2022-10-22T20:00:00;64.97;;;25.92;;
20421;SDS011;10370;53.102;18.034;2022-10-22T20:05:21;65.85;;;25.25;;
20421;SDS011;10370;53.102;18.034;2022-10-22T20:10:42;67.38;;;26.50;;
20421;SDS011;10370;53.102;18.034;2022-10-22T20:16:04;66.03;;;24.50;;
20421;SDS011;10370;53.102;18.034;2022-10-22T20:21:30;58.78;;;24.85;;
20421;SDS011;10370;53.102;18.034;2022-10-22T20:26:52;65.60;;;24.05;;
20421;SDS011;10370;53.102;18.034;2022-10-22T20:32:14;65.25;;;24.35;;
20421;SDS011;10370;53.102;18.034;2022-10-22T20:37:36;63.25;;;24.30;;
20421;SDS011;10370;53.102;18.034;2022-10-22T20:42:58;68.22;;;25.70;;
20421;SDS011;10370;53.102;18.034;2022-10-22T20:48:23;69.93;;;24.85;;
20421;SDS011;10370;53.102;18.034;2022-10-22T20:53:53;67.95;;;25.65;;
20421;SDS011;10370;53.102;18.034;2022-10-22T20:59:16;65.32;;;24.95;;
20421;SDS011;10370;53.102;18.034;2022-10-22T21:04:38;69.47;;;24.77;;
20421;SDS011;10370;53.102;18.034;2022-10-22T21:10:05;64.40;;;24.45;;
20421;SDS011;10370;53.102;18.034;2022-10-22T21:15:30;69.38;;;24.73;;
20421;SDS011;10370;53.102;18.034;2022-10-22T21:20:51;68.15;;;26.08;;
20421;SDS011;10370;53.102;18.034;2022-10-22T21:26:12;61.58;;;24.48;;
20421;SDS011;10370;53.102;18.034;2022-10-22T21:31:33;64.03;;;24.45;;
20421;SDS011;10370;53.102;18.034;2022-10-22T21:36:55;65.53;;;23.58;;
20421;SDS011;10370;53.102;18.034;2022-10-22T21:42:17;65.78;;;23.92;;
20421;SDS011;10370;53.102;18.034;2022-10-22T21:47:38;65.72;;;24.83;;
20421;SDS011;10370;53.102;18.034;2022-10-22T21:53:00;62.50;;;24.77;;
20421;SDS011;10370;53.102;18.034;2022-10-22T21:58:21;63.28;;;24.50;;
20421;SDS011;10370;53.102;18.034;2022-10-22T22:03:43;65.93;;;24.27;;
20421;SDS011;10370;53.102;18.034;2022-10-22T22:09:08;57.65;;;23.60;;
20421;SDS011;10370;53.102;18.034;2022-10-22T22:14:29;71.28;;;26.83;;
20421;SDS011;10370;53.102;18.034;2022-10-22T22:19:51;67.00;;;25.63;;
20421;SDS011;10370;53.102;18.034;2022-10-22T22:25:12;69.30;;;24.90;;
20421;SDS011;10370;53.102;18.034;2022-10-22T22:30:33;74.90;;;26.27;;
20421;SDS011;10370;53.102;18.034;2022-10-22T22:35:59;65.40;;;24.35;;
20421;SDS011;10370;53.102;18.034;2022-10-22T22:41:20;65.10;;;23.88;;
20421;SDS011;10370;53.102;18.034;2022-10-22T22:46:42;61.42;;;24.08;;
20421;SDS011;10370;53.102;18.034;2022-10-22T22:52:03;53.92;;;21.27;;
20421;SDS011;10370;53.102;18.034;2022-10-22T22:57:25;56.40;;;21.95;;
20421;SDS011;10370;53.102;18.034;2022-10-22T23:02:47;56.80;;;22.00;;
20421;SDS011;10370;53.102;18.034;2022-10-22T23:08:08;54.95;;;20.63;;
20421;SDS011;10370;53.102;18.034;2022-10-22T23:13:28;59.83;;;22.95;;
20421;SDS011;10370;53.102;18.034;2022-10-22T23:18:51;63.50;;;24.30;;
20421;SDS011;10370;53.102;18.034;2022-10-22T23:24:14;71.22;;;25.65;;
20421;SDS011;10370;53.102;18.034;2022-10-22T23:29:36;70.32;;;24.52;;
20421;SDS011;10370;53.102;18.034;2022-10-22T23:34:57;80.80;;;26.40;;
20421;SDS011;10370;53.102;18.034;2022-10-22T23:40:20;70.03;;;25.95;;
20421;SDS011;10370;53.102;18.034;2022-10-22T23:45:41;71.15;;;26.02;;
20421;SDS011;10370;53.102;18.034;2022-10-22T23:51:03;69.35;;;25.63;;
20421;SDS011;10370;53.102;18.034;2022-10-22T23:56:25;69.07;;;26.10;;
